sensor_id;sensor_type;location;lat;lon;timestamp;pressure;altitude;pressure_sealevel;temperature;humidity
10008;BME280;5043;41.766;26.204;2023-04-08T00:02:24;101321.28;;;8.54;95.40
10008;BME280;5043;41.766;26.204;2023-04-08T00:04:50;101361.28;;;8.76;95.17
10008;BME280;5043;41.766;26.204;2023-04-08T00:07:15;101341.16;;;8.75;95.14
10008;BME280;5043;41.766;26.204;2023-04-08T00:09:41;101275.47;;;8.42;94.57
10008;BME280;5043;41.766;26.204;2023-04-08T00:12:06;101335.47;;;8.67;95.03
10008;BME280;5043;41.766;26.204;2023-04-08T00:14:31;101325.88;;;8.50;95.31
10008;BME280;5043;41.766;26.204;2023-04-08T00:16:57;101339.97;;;8.65;95.11
10008;BME280;5043;41.766;26.204;2023-04-08T00:19:22;101333.34;;;8.58;95.16
10008;BME280;5043;41.766;26.204;2023-04-08T00:21:48;101320.25;;;8.41;94.56
10008;BME280;5043;41.766;26.204;2023-04-08T00:24:13;101335.38;;;8.53;94.58
10008;BME280;5043;41.766;26.204;2023-04-08T00:26:39;101346.56;;;8.56;94.55
10008;BME280;5043;41.766;26.204;2023-04-08T00:29:04;101243.88;;;7.94;94.73
10008;BME280;5043;41.766;26.204;2023-04-08T00:31:30;101249.13;;;7.94;94.51
10008;BME280;5043;41.766;26.204;2023-04-08T00:33:56;101331.88;;;8.52;93.98
10008;BME280;5043;41.766;26.204;2023-04-08T00:36:22;101263.16;;;8.10;94.32
10008;BME280;5043;41.766;26.204;2023-04-08T00:38:47;101329.34;;;8.51;93.91
10008;BME280;5043;41.766;26.204;2023-04-08T00:41:13;101264.88;;;8.11;94.16
10008;BME280;5043;41.766;26.204;2023-04-08T00:43:38;101362.53;;;8.53;94.36
10008;BME280;5043;41.766;26.204;2023-04-08T00:46:04;101320.50;;;8.52;93.93
10008;BME280;5043;41.766;26.204;2023-04-08T00:48:30;101326.47;;;8.55;93.90
10008;BME280;5043;41.766;26.204;2023-04-08T00:50:56;101334.19;;;8.58;93.52
10008;BME280;5043;41.766;26.204;2023-04-08T00:53:22;101329.41;;;8.49;94.07
10008;BME280;5043;41.766;26.204;2023-04-08T00:55:48;101317.03;;;8.51;94.17
10008;BME280;5043;41.766;26.204;2023-04-08T00:58:13;101319.91;;;8.47;94.29
10008;BME280;5043;41.766;26.204;2023-04-08T01:00:53;101308.19;;;8.37;94.61
10008;BME280;5043;41.766;26.204;2023-04-08T01:06:02;101328.09;;;8.73;93.68
10008;BME280;5043;41.766;26.204;2023-04-08T01:08:32;101321.47;;;8.51;94.29
10008;BME280;5043;41.766;26.204;2023-04-08T01:11:02;101336.91;;;8.57;95.03
10008;BME280;5043;41.766;26.204;2023-04-08T01:13:30;101281.47;;;8.11;95.48
10008;BME280;5043;41.766;26.204;2023-04-08T01:15:59;101350.03;;;8.57;95.33
10008;BME280;5043;41.766;26.204;2023-04-08T01:18:25;101337.47;;;8.46;95.57
10008;BME280;5043;41.766;26.204;2023-04-08T01:20:53;101326.16;;;8.44;95.79
10008;BME280;5043;41.766;26.204;2023-04-08T01:23:38;101339.94;;;8.49;95.54
10008;BME280;5043;41.766;26.204;2023-04-08T01:26:05;101336.78;;;8.43;96.08
10008;BME280;5043;41.766;26.204;2023-04-08T01:28:32;101316.44;;;8.46;95.62
10008;BME280;5043;41.766;26.204;2023-04-08T01:31:00;101271.63;;;7.99;96.34
10008;BME280;5043;41.766;26.204;2023-04-08T01:33:27;101270.91;;;7.79;96.81
10008;BME280;5043;41.766;26.204;2023-04-08T01:35:55;101334.81;;;8.13;97.90
10008;BME280;5043;41.766;26.204;2023-04-08T01:38:22;101336.19;;;8.03;98.07
10008;BME280;5043;41.766;26.204;2023-04-08T01:40:50;101362.09;;;8.11;98.21
10008;BME280;5043;41.766;26.204;2023-04-08T01:43:17;101338.22;;;7.98;98.76
10008;BME280;5043;41.766;26.204;2023-04-08T01:45:44;101336.50;;;7.97;98.97
10008;BME280;5043;41.766;26.204;2023-04-08T01:48:12;101341.75;;;7.97;98.58
10008;BME280;5043;41.766;26.204;2023-04-08T01:50:42;101343.47;;;7.98;98.53
10008;BME280;5043;41.766;26.204;2023-04-08T01:53:09;101341.78;;;7.80;98.73
10008;BME280;5043;41.766;26.204;2023-04-08T01:55:36;101309.56;;;7.59;98.71
10008;BME280;5043;41.766;26.204;2023-04-08T01:58:04;101371.56;;;7.79;98.94
10008;BME280;5043;41.766;26.204;2023-04-08T02:00:32;101347.06;;;7.79;98.88
10008;BME280;5043;41.766;26.204;2023-04-08T02:02:59;101294.06;;;7.36;99.46
10008;BME280;5043;41.766;26.204;2023-04-08T02:05:27;101253.09;;;7.17;99.36
10008;BME280;5043;41.766;26.204;2023-04-08T02:07:52;101366.31;;;7.79;98.97
10008;BME280;5043;41.766;26.204;2023-04-08T02:10:18;101285.91;;;7.42;99.25
10008;BME280;5043;41.766;26.204;2023-04-08T02:12:43;101355.91;;;7.78;99.09
10008;BME280;5043;41.766;26.204;2023-04-08T02:15:10;101357.28;;;7.85;99.31
10008;BME280;5043;41.766;26.204;2023-04-08T02:17:51;101392.81;;;7.75;98.74
10008;BME280;5043;41.766;26.204;2023-04-08T02:20:26;101360.66;;;7.70;99.37
10008;BME280;5043;41.766;26.204;2023-04-08T02:22:59;101357.41;;;7.64;98.81
10008;BME280;5043;41.766;26.204;2023-04-08T02:25:28;101339.94;;;7.46;99.84
10008;BME280;5043;41.766;26.204;2023-04-08T02:27:55;101352.94;;;7.49;99.39
10008;BME280;5043;41.766;26.204;2023-04-08T02:30:24;101334.81;;;7.26;99.96
10008;BME280;5043;41.766;26.204;2023-04-08T02:32:52;101287.13;;;7.00;99.92
10008;BME280;5043;41.766;26.204;2023-04-08T02:35:18;101345.59;;;7.20;100.00
10008;BME280;5043;41.766;26.204;2023-04-08T02:37:45;101379.28;;;7.11;100.00
10008;BME280;5043;41.766;26.204;2023-04-08T02:40:41;101352.63;;;7.01;100.00
10008;BME280;5043;41.766;26.204;2023-04-08T02:43:06;101358.72;;;7.02;100.00
10008;BME280;5043;41.766;26.204;2023-04-08T02:45:37;101349.09;;;7.02;100.00
10008;BME280;5043;41.766;26.204;2023-04-08T02:48:05;101347.75;;;7.12;100.00
10008;BME280;5043;41.766;26.204;2023-04-08T02:50:30;101348.66;;;7.11;100.00
10008;BME280;5043;41.766;26.204;2023-04-08T02:52:56;101261.81;;;6.63;99.64
10008;BME280;5043;41.766;26.204;2023-04-08T02:55:21;101266.50;;;6.56;100.00
10008;BME280;5043;41.766;26.204;2023-04-08T02:57:47;101339.03;;;6.93;100.00
10008;BME280;5043;41.766;26.204;2023-04-08T03:00:13;101338.31;;;6.89;100.00
10008;BME280;5043;41.766;26.204;2023-04-08T03:02:39;101338.31;;;6.89;100.00
10008;BME280;5043;41.766;26.204;2023-04-08T03:05:05;101275.13;;;6.40;100.00
10008;BME280;5043;41.766;26.204;2023-04-08T03:07:31;101357.63;;;6.88;100.00
10008;BME280;5043;41.766;26.204;2023-04-08T03:09:57;101385.69;;;6.86;100.00
10008;BME280;5043;41.766;26.204;2023-04-08T03:12:23;101316.19;;;6.39;100.00
10008;BME280;5043;41.766;26.204;2023-04-08T03:14:49;101354.69;;;6.57;100.00
10008;BME280;5043;41.766;26.204;2023-04-08T03:17:15;101369.22;;;6.64;100.00
10008;BME280;5043;41.766;26.204;2023-04-08T03:19:41;101351.34;;;6.54;100.00
10008;BME280;5043;41.766;26.204;2023-04-08T03:22:06;101369.91;;;6.49;100.00
10008;BME280;5043;41.766;26.204;2023-04-08T03:24:34;101347.34;;;6.45;100.00
10008;BME280;5043;41.766;26.204;2023-04-08T03:26:59;101352.69;;;6.44;100.00
10008;BME280;5043;41.766;26.204;2023-04-08T03:29:25;101371.25;;;6.58;100.00
10008;BME280;5043;41.766;26.204;2023-04-08T03:31:51;101336.22;;;6.40;100.00
10008;BME280;5043;41.766;26.204;2023-04-08T03:34:17;101353.00;;;6.36;100.00
10008;BME280;5043;41.766;26.204;2023-04-08T03:36:42;101363.63;;;6.33;100.00
10008;BME280;5043;41.766;26.204;2023-04-08T03:39:08;101382.94;;;6.10;100.00
10008;BME280;5043;41.766;26.204;2023-04-08T03:41:33;101320.84;;;5.72;100.00
10008;BME280;5043;41.766;26.204;2023-04-08T03:43:58;101373.00;;;5.98;100.00
10008;BME280;5043;41.766;26.204;2023-04-08T03:46:24;101380.00;;;5.98;100.00
10008;BME280;5043;41.766;26.204;2023-04-08T03:48:49;101345.84;;;5.79;100.00
10008;BME280;5043;41.766;26.204;2023-04-08T03:51:15;101376.06;;;5.88;100.00
10008;BME280;5043;41.766;26.204;2023-04-08T03:53:40;101379.47;;;5.90;100.00
10008;BME280;5043;41.766;26.204;2023-04-08T03:56:06;101400.53;;;5.87;100.00
10008;BME280;5043;41.766;26.204;2023-04-08T03:58:32;101286.91;;;5.29;100.00
10008;BME280;5043;41.766;26.204;2023-04-08T04:00:57;101410.22;;;5.85;100.00
10008;BME280;5043;41.766;26.204;2023-04-08T04:03:23;101374.03;;;5.73;100.00
10008;BME280;5043;41.766;26.204;2023-04-08T04:05:49;101400.00;;;5.79;100.00
10008;BME280;5043;41.766;26.204;2023-04-08T04:08:14;101321.81;;;5.28;100.00
10008;BME280;5043;41.766;26.204;2023-04-08T04:10:40;101409.03;;;5.70;100.00
10008;BME280;5043;41.766;26.204;2023-04-08T04:13:05;101340.75;;;5.34;100.00
10008;BME280;5043;41.766;26.204;2023-04-08T04:15:31;101395.28;;;5.65;100.00
10008;BME280;5043;41.766;26.204;2023-04-08T04:17:56;101409.78;;;5.74;100.00
10008;BME280;5043;41.766;26.204;2023-04-08T04:20:22;101409.69;;;5.77;100.00
10008;BME280;5043;41.766;26.204;2023-04-08T04:22:47;101369.66;;;5.53;100.00
10008;BME280;5043;41.766;26.204;2023-04-08T04:25:13;101411.59;;;5.93;100.00
10008;BME280;5043;41.766;26.204;2023-04-08T04:27:38;101414.00;;;5.99;100.00
10008;BME280;5043;41.766;26.204;2023-04-08T04:30:04;101402.72;;;5.97;100.00
10008;BME280;5043;41.766;26.204;2023-04-08T04:32:30;101357.06;;;5.83;100.00
10008;BME280;5043;41.766;26.204;2023-04-08T04:34:55;101368.16;;;5.89;100.00
10008;BME280;5043;41.766;26.204;2023-04-08T04:37:21;101418.28;;;6.42;100.00
10008;BME280;5043;41.766;26.204;2023-04-08T04:39:46;101443.59;;;6.62;99.75
10008;BME280;5043;41.766;26.204;2023-04-08T04:42:12;101432.41;;;6.58;99.38
10008;BME280;5043;41.766;26.204;2023-04-08T04:44:37;101416.41;;;6.64;98.68
10008;BME280;5043;41.766;26.204;2023-04-08T04:47:03;101418.81;;;6.69;98.96
10008;BME280;5043;41.766;26.204;2023-04-08T04:49:28;101398.59;;;6.52;99.15
10008;BME280;5043;41.766;26.204;2023-04-08T04:51:53;101407.66;;;6.84;97.96
10008;BME280;5043;41.766;26.204;2023-04-08T04:54:19;101357.16;;;6.60;96.31
10008;BME280;5043;41.766;26.204;2023-04-08T04:56:44;101431.06;;;7.07;96.40
10008;BME280;5043;41.766;26.204;2023-04-08T04:59:10;101424.53;;;6.97;97.25
10008;BME280;5043;41.766;26.204;2023-04-08T05:01:35;101409.94;;;6.91;97.24
10008;BME280;5043;41.766;26.204;2023-04-08T05:04:01;101405.88;;;6.84;97.62
10008;BME280;5043;41.766;26.204;2023-04-08T05:06:26;101366.13;;;6.75;96.89
10008;BME280;5043;41.766;26.204;2023-04-08T05:08:52;101417.00;;;7.27;97.29
10008;BME280;5043;41.766;26.204;2023-04-08T05:11:18;101378.69;;;7.06;95.75
10008;BME280;5043;41.766;26.204;2023-04-08T05:13:46;101435.75;;;7.38;96.68
10008;BME280;5043;41.766;26.204;2023-04-08T05:16:11;101426.06;;;7.20;97.03
10008;BME280;5043;41.766;26.204;2023-04-08T05:18:37;101411.63;;;7.11;97.88
10008;BME280;5043;41.766;26.204;2023-04-08T05:21:02;101439.72;;;7.28;98.06
10008;BME280;5043;41.766;26.204;2023-04-08T05:23:27;101382.13;;;7.06;97.67
10008;BME280;5043;41.766;26.204;2023-04-08T05:25:53;101452.19;;;7.41;98.02
10008;BME280;5043;41.766;26.204;2023-04-08T05:28:19;101369.56;;;7.31;97.75
10008;BME280;5043;41.766;26.204;2023-04-08T05:30:51;101438.72;;;8.02;96.39
10008;BME280;5043;41.766;26.204;2023-04-08T05:33:17;101357.59;;;7.79;95.49
10008;BME280;5043;41.766;26.204;2023-04-08T05:35:49;101431.34;;;8.44;93.60
10008;BME280;5043;41.766;26.204;2023-04-08T05:38:15;101447.47;;;8.71;92.37
10008;BME280;5043;41.766;26.204;2023-04-08T05:40:40;101329.09;;;8.05;92.07
10008;BME280;5043;41.766;26.204;2023-04-08T05:43:06;101444.53;;;8.77;91.49
10008;BME280;5043;41.766;26.204;2023-04-08T05:45:31;101379.63;;;8.45;91.81
10008;BME280;5043;41.766;26.204;2023-04-08T05:47:57;101467.31;;;8.93;91.49
10008;BME280;5043;41.766;26.204;2023-04-08T05:50:23;101461.75;;;9.15;91.70
10008;BME280;5043;41.766;26.204;2023-04-08T05:52:49;101442.25;;;9.35;90.75
10008;BME280;5043;41.766;26.204;2023-04-08T05:55:14;101410.47;;;9.38;90.18
10008;BME280;5043;41.766;26.204;2023-04-08T05:57:40;101472.84;;;9.53;90.16
10008;BME280;5043;41.766;26.204;2023-04-08T06:00:07;101441.81;;;9.89;90.17
10008;BME280;5043;41.766;26.204;2023-04-08T06:02:34;101426.03;;;10.19;88.07
10008;BME280;5043;41.766;26.204;2023-04-08T06:05:02;101446.41;;;10.31;88.24
10008;BME280;5043;41.766;26.204;2023-04-08T06:07:31;101433.72;;;10.38;87.90
10008;BME280;5043;41.766;26.204;2023-04-08T06:09:57;101399.00;;;10.29;88.35
10008;BME280;5043;41.766;26.204;2023-04-08T06:12:22;101434.97;;;10.74;87.49
10008;BME280;5043;41.766;26.204;2023-04-08T06:14:52;101485.63;;;11.09;84.84
10008;BME280;5043;41.766;26.204;2023-04-08T06:17:18;101464.78;;;11.19;84.66
10008;BME280;5043;41.766;26.204;2023-04-08T06:19:43;101435.56;;;10.79;85.29
10008;BME280;5043;41.766;26.204;2023-04-08T06:22:09;101463.16;;;11.02;85.46
10008;BME280;5043;41.766;26.204;2023-04-08T06:24:34;101476.28;;;10.89;85.18
10008;BME280;5043;41.766;26.204;2023-04-08T06:27:00;101459.78;;;11.14;85.16
10008;BME280;5043;41.766;26.204;2023-04-08T06:29:25;101397.84;;;10.77;85.42
10008;BME280;5043;41.766;26.204;2023-04-08T06:31:51;101454.88;;;11.36;84.87
10008;BME280;5043;41.766;26.204;2023-04-08T06:34:16;101450.88;;;11.43;83.97
10008;BME280;5043;41.766;26.204;2023-04-08T06:36:42;101483.31;;;11.73;83.47
10008;BME280;5043;41.766;26.204;2023-04-08T06:39:09;101456.84;;;11.88;82.64
10008;BME280;5043;41.766;26.204;2023-04-08T06:41:36;101457.78;;;11.87;82.72
10008;BME280;5043;41.766;26.204;2023-04-08T06:44:03;101461.94;;;11.91;83.05
10008;BME280;5043;41.766;26.204;2023-04-08T06:46:28;101468.47;;;12.12;82.05
10008;BME280;5043;41.766;26.204;2023-04-08T06:48:53;101463.00;;;12.01;81.88
10008;BME280;5043;41.766;26.204;2023-04-08T06:51:19;101389.94;;;11.73;81.40
10008;BME280;5043;41.766;26.204;2023-04-08T06:53:45;101405.88;;;11.45;82.27
10008;BME280;5043;41.766;26.204;2023-04-08T06:56:10;101461.88;;;11.78;83.21
10008;BME280;5043;41.766;26.204;2023-04-08T06:58:36;101463.28;;;11.84;83.06
10008;BME280;5043;41.766;26.204;2023-04-08T07:01:02;101347.28;;;11.38;83.00
10008;BME280;5043;41.766;26.204;2023-04-08T07:03:27;101453.16;;;12.03;82.09
10008;BME280;5043;41.766;26.204;2023-04-08T07:05:53;101466.41;;;12.42;81.59
10008;BME280;5043;41.766;26.204;2023-04-08T07:08:18;101407.63;;;12.12;81.06
10008;BME280;5043;41.766;26.204;2023-04-08T07:10:44;101470.13;;;12.39;81.49
10008;BME280;5043;41.766;26.204;2023-04-08T07:13:09;101461.81;;;12.19;82.66
10008;BME280;5043;41.766;26.204;2023-04-08T07:15:35;101459.34;;;12.68;81.28
10008;BME280;5043;41.766;26.204;2023-04-08T07:18:01;101469.72;;;12.83;80.91
10008;BME280;5043;41.766;26.204;2023-04-08T07:20:27;101463.38;;;12.61;81.78
10008;BME280;5043;41.766;26.204;2023-04-08T07:22:52;101467.47;;;12.39;82.63
10008;BME280;5043;41.766;26.204;2023-04-08T07:25:17;101472.66;;;12.41;83.64
10008;BME280;5043;41.766;26.204;2023-04-08T07:27:43;101419.25;;;12.09;83.05
10008;BME280;5043;41.766;26.204;2023-04-08T07:30:10;101464.63;;;12.55;82.30
10008;BME280;5043;41.766;26.204;2023-04-08T07:32:35;101491.00;;;12.69;82.32
10008;BME280;5043;41.766;26.204;2023-04-08T07:35:01;101466.66;;;12.64;80.60
10008;BME280;5043;41.766;26.204;2023-04-08T07:37:27;101463.56;;;12.58;81.31
10008;BME280;5043;41.766;26.204;2023-04-08T07:39:52;101473.88;;;12.75;80.98
10008;BME280;5043;41.766;26.204;2023-04-08T07:42:18;101490.81;;;13.23;79.63
10008;BME280;5043;41.766;26.204;2023-04-08T07:44:44;101468.56;;;13.00;80.82
10008;BME280;5043;41.766;26.204;2023-04-08T07:47:10;101453.94;;;12.94;80.37
10008;BME280;5043;41.766;26.204;2023-04-08T07:49:36;101431.38;;;13.27;78.79
10008;BME280;5043;41.766;26.204;2023-04-08T07:52:03;101427.34;;;13.21;79.58
10008;BME280;5043;41.766;26.204;2023-04-08T07:54:30;101489.69;;;13.27;82.12
10008;BME280;5043;41.766;26.204;2023-04-08T07:56:55;101473.50;;;13.55;81.22
10008;BME280;5043;41.766;26.204;2023-04-08T07:59:21;101467.81;;;13.72;79.55
10008;BME280;5043;41.766;26.204;2023-04-08T08:01:47;101463.72;;;13.92;78.11
10008;BME280;5043;41.766;26.204;2023-04-08T08:04:12;101406.13;;;13.81;76.61
10008;BME280;5043;41.766;26.204;2023-04-08T08:06:38;101469.91;;;14.51;75.67
10008;BME280;5043;41.766;26.204;2023-04-08T08:09:03;101430.09;;;13.92;75.33
10008;BME280;5043;41.766;26.204;2023-04-08T08:11:29;101473.50;;;14.50;74.08
10008;BME280;5043;41.766;26.204;2023-04-08T08:13:54;101471.13;;;14.69;73.42
10008;BME280;5043;41.766;26.204;2023-04-08T08:16:21;101482.53;;;14.93;72.67
10008;BME280;5043;41.766;26.204;2023-04-08T08:18:46;101347.16;;;14.12;72.73
10008;BME280;5043;41.766;26.204;2023-04-08T08:21:12;101463.31;;;15.00;73.76
10008;BME280;5043;41.766;26.204;2023-04-08T08:23:37;101462.84;;;15.29;72.54
10008;BME280;5043;41.766;26.204;2023-04-08T08:26:07;101444.88;;;15.21;71.96
10008;BME280;5043;41.766;26.204;2023-04-08T08:28:37;101439.53;;;15.32;71.89
10008;BME280;5043;41.766;26.204;2023-04-08T08:31:02;101453.78;;;15.31;69.18
10008;BME280;5043;41.766;26.204;2023-04-08T08:33:30;101438.34;;;15.14;68.88
10008;BME280;5043;41.766;26.204;2023-04-08T08:35:56;101465.63;;;15.27;68.73
10008;BME280;5043;41.766;26.204;2023-04-08T08:38:22;101435.91;;;15.55;67.05
10008;BME280;5043;41.766;26.204;2023-04-08T08:40:56;101449.56;;;15.40;67.18
10008;BME280;5043;41.766;26.204;2023-04-08T08:43:23;101434.69;;;15.15;69.57
10008;BME280;5043;41.766;26.204;2023-04-08T08:45:48;101413.91;;;15.31;69.13
10008;BME280;5043;41.766;26.204;2023-04-08T08:48:14;101422.72;;;15.54;69.50
10008;BME280;5043;41.766;26.204;2023-04-08T08:50:40;101451.88;;;15.44;67.81
10008;BME280;5043;41.766;26.204;2023-04-08T08:53:05;101433.72;;;15.38;68.86
10008;BME280;5043;41.766;26.204;2023-04-08T08:55:31;101394.66;;;15.39;68.84
10008;BME280;5043;41.766;26.204;2023-04-08T08:57:59;101407.50;;;15.88;66.70
10008;BME280;5043;41.766;26.204;2023-04-08T09:05:47;101353.63;;;15.74;66.37
10008;BME280;5043;41.766;26.204;2023-04-08T09:11:18;101406.66;;;16.60;61.12
10008;BME280;5043;41.766;26.204;2023-04-08T09:13:46;101419.63;;;16.95;59.76
10008;BME280;5043;41.766;26.204;2023-04-08T09:16:13;101417.34;;;17.21;58.15
10008;BME280;5043;41.766;26.204;2023-04-08T09:18:40;101423.75;;;17.08;55.54
10008;BME280;5043;41.766;26.204;2023-04-08T09:21:10;101362.88;;;16.83;54.20
10008;BME280;5043;41.766;26.204;2023-04-08T09:23:38;101396.78;;;16.51;56.80
10008;BME280;5043;41.766;26.204;2023-04-08T09:26:26;101422.09;;;17.17;55.05
10008;BME280;5043;41.766;26.204;2023-04-08T09:29:02;101423.34;;;17.53;53.92
10008;BME280;5043;41.766;26.204;2023-04-08T09:31:29;101426.47;;;17.67;53.69
10008;BME280;5043;41.766;26.204;2023-04-08T09:33:57;101444.72;;;17.62;53.02
10008;BME280;5043;41.766;26.204;2023-04-08T09:36:23;101425.38;;;17.00;54.70
10008;BME280;5043;41.766;26.204;2023-04-08T09:38:51;101420.38;;;16.76;56.55
10008;BME280;5043;41.766;26.204;2023-04-08T09:41:17;101440.81;;;16.96;56.88
10008;BME280;5043;41.766;26.204;2023-04-08T09:43:49;101356.94;;;17.10;52.84
10008;BME280;5043;41.766;26.204;2023-04-08T09:46:17;101440.72;;;17.47;52.43
10008;BME280;5043;41.766;26.204;2023-04-08T09:52:10;101415.25;;;17.93;48.60
10008;BME280;5043;41.766;26.204;2023-04-08T09:54:54;101399.47;;;17.61;50.73
10008;BME280;5043;41.766;26.204;2023-04-08T10:00:12;101407.94;;;18.33;45.92
10008;BME280;5043;41.766;26.204;2023-04-08T10:05:41;101401.50;;;17.97;52.51
10008;BME280;5043;41.766;26.204;2023-04-08T10:08:07;101395.56;;;18.13;51.11
10008;BME280;5043;41.766;26.204;2023-04-08T10:10:38;101344.13;;;18.01;50.46
10008;BME280;5043;41.766;26.204;2023-04-08T10:13:06;101296.06;;;18.01;47.58
10008;BME280;5043;41.766;26.204;2023-04-08T10:15:35;101340.56;;;18.39;47.08
10008;BME280;5043;41.766;26.204;2023-04-08T10:23:09;101378.94;;;19.21;45.61
10008;BME280;5043;41.766;26.204;2023-04-08T10:25:36;101388.19;;;18.72;45.87
10008;BME280;5043;41.766;26.204;2023-04-08T10:30:48;101397.91;;;19.37;42.08
10008;BME280;5043;41.766;26.204;2023-04-08T10:33:20;101338.22;;;18.73;42.71
10008;BME280;5043;41.766;26.204;2023-04-08T10:35:48;101382.75;;;18.91;43.58
10008;BME280;5043;41.766;26.204;2023-04-08T10:38:15;101380.53;;;18.87;42.95
10008;BME280;5043;41.766;26.204;2023-04-08T10:40:43;101378.19;;;19.01;44.34
10008;BME280;5043;41.766;26.204;2023-04-08T10:43:09;101368.06;;;19.05;43.83
10008;BME280;5043;41.766;26.204;2023-04-08T10:45:36;101360.72;;;19.34;43.65
10008;BME280;5043;41.766;26.204;2023-04-08T10:50:36;101384.03;;;19.69;42.34
10008;BME280;5043;41.766;26.204;2023-04-08T10:53:02;101306.38;;;19.69;39.60
10008;BME280;5043;41.766;26.204;2023-04-08T10:55:27;101357.28;;;20.12;38.49
10008;BME280;5043;41.766;26.204;2023-04-08T10:57:53;101372.69;;;19.75;38.42
10008;BME280;5043;41.766;26.204;2023-04-08T11:00:31;101367.81;;;19.70;37.84
10008;BME280;5043;41.766;26.204;2023-04-08T11:03:03;101361.53;;;19.79;37.42
10008;BME280;5043;41.766;26.204;2023-04-08T11:05:30;101346.91;;;19.11;39.94
10008;BME280;5043;41.766;26.204;2023-04-08T11:08:00;101335.13;;;18.77;42.05
10008;BME280;5043;41.766;26.204;2023-04-08T11:10:28;101346.69;;;19.85;40.16
10008;BME280;5043;41.766;26.204;2023-04-08T11:12:56;101350.66;;;20.68;38.93
10008;BME280;5043;41.766;26.204;2023-04-08T11:15:23;101352.72;;;21.07;37.36
10008;BME280;5043;41.766;26.204;2023-04-08T11:17:50;101316.84;;;21.16;37.16
10008;BME280;5043;41.766;26.204;2023-04-08T11:20:16;101303.31;;;21.50;36.04
10008;BME280;5043;41.766;26.204;2023-04-08T11:22:43;101350.22;;;21.14;36.58
10008;BME280;5043;41.766;26.204;2023-04-08T11:25:10;101330.03;;;21.52;35.33
10008;BME280;5043;41.766;26.204;2023-04-08T11:27:37;101325.19;;;21.87;34.70
10008;BME280;5043;41.766;26.204;2023-04-08T11:30:04;101315.66;;;22.01;34.94
10008;BME280;5043;41.766;26.204;2023-04-08T11:32:30;101312.56;;;21.72;35.62
10008;BME280;5043;41.766;26.204;2023-04-08T11:34:59;101304.69;;;21.95;33.59
10008;BME280;5043;41.766;26.204;2023-04-08T11:37:25;101306.00;;;22.39;32.74
10008;BME280;5043;41.766;26.204;2023-04-08T11:39:53;101239.56;;;21.84;32.58
10008;BME280;5043;41.766;26.204;2023-04-08T11:42:31;101296.09;;;22.23;33.06
10008;BME280;5043;41.766;26.204;2023-04-08T11:44:57;101294.03;;;22.49;32.43
10008;BME280;5043;41.766;26.204;2023-04-08T11:47:32;101234.78;;;22.27;32.00
10008;BME280;5043;41.766;26.204;2023-04-08T11:49:58;101280.00;;;22.78;30.70
10008;BME280;5043;41.766;26.204;2023-04-08T11:52:45;101296.97;;;23.09;28.85
10008;BME280;5043;41.766;26.204;2023-04-08T11:55:22;101303.38;;;22.78;27.72
10008;BME280;5043;41.766;26.204;2023-04-08T11:57:47;101299.00;;;22.77;28.07
10008;BME280;5043;41.766;26.204;2023-04-08T12:00:13;101296.44;;;22.28;29.24
10008;BME280;5043;41.766;26.204;2023-04-08T12:02:39;101275.25;;;22.25;28.80
10008;BME280;5043;41.766;26.204;2023-04-08T12:05:05;101280.34;;;21.72;30.03
10008;BME280;5043;41.766;26.204;2023-04-08T12:07:32;101303.03;;;22.02;30.68
10008;BME280;5043;41.766;26.204;2023-04-08T12:10:07;101280.06;;;22.54;30.42
10008;BME280;5043;41.766;26.204;2023-04-08T12:12:33;101265.28;;;22.97;29.50
10008;BME280;5043;41.766;26.204;2023-04-08T12:14:59;101266.44;;;23.70;28.39
10008;BME280;5043;41.766;26.204;2023-04-08T12:17:26;101284.47;;;23.24;27.71
10008;BME280;5043;41.766;26.204;2023-04-08T12:19:52;101268.00;;;23.19;28.31
10008;BME280;5043;41.766;26.204;2023-04-08T12:22:17;101276.88;;;22.50;29.46
10008;BME280;5043;41.766;26.204;2023-04-08T12:24:53;101253.47;;;21.80;28.85
10008;BME280;5043;41.766;26.204;2023-04-08T12:27:19;101198.13;;;20.73;28.03
10008;BME280;5043;41.766;26.204;2023-04-08T12:29:45;101282.38;;;20.54;29.66
10008;BME280;5043;41.766;26.204;2023-04-08T12:32:10;101257.59;;;20.26;29.94
10008;BME280;5043;41.766;26.204;2023-04-08T12:34:36;101265.34;;;20.37;29.54
10008;BME280;5043;41.766;26.204;2023-04-08T12:37:04;101266.63;;;20.51;28.81
10008;BME280;5043;41.766;26.204;2023-04-08T12:39:30;101167.31;;;20.27;28.49
10008;BME280;5043;41.766;26.204;2023-04-08T12:41:56;101223.00;;;20.91;27.27
10008;BME280;5043;41.766;26.204;2023-04-08T12:44:21;101224.94;;;21.22;28.39
10008;BME280;5043;41.766;26.204;2023-04-08T12:46:47;101226.47;;;21.49;28.04
10008;BME280;5043;41.766;26.204;2023-04-08T12:49:12;101236.03;;;21.92;26.95
10008;BME280;5043;41.766;26.204;2023-04-08T12:51:37;101189.25;;;22.95;26.15
10008;BME280;5043;41.766;26.204;2023-04-08T12:54:04;101182.00;;;23.92;25.00
10008;BME280;5043;41.766;26.204;2023-04-08T12:56:30;101214.22;;;24.38;24.16
10008;BME280;5043;41.766;26.204;2023-04-08T12:58:56;101223.03;;;23.51;25.06
10008;BME280;5043;41.766;26.204;2023-04-08T13:01:22;101217.28;;;22.23;26.85
10008;BME280;5043;41.766;26.204;2023-04-08T13:03:47;101212.13;;;22.91;25.99
10008;BME280;5043;41.766;26.204;2023-04-08T13:06:13;101208.41;;;23.97;25.08
10008;BME280;5043;41.766;26.204;2023-04-08T13:08:38;101106.00;;;24.12;24.59
10008;BME280;5043;41.766;26.204;2023-04-08T13:11:04;101196.34;;;24.37;24.86
10008;BME280;5043;41.766;26.204;2023-04-08T13:13:30;101203.06;;;24.12;24.38
10008;BME280;5043;41.766;26.204;2023-04-08T13:15:55;101202.19;;;24.55;24.23
10008;BME280;5043;41.766;26.204;2023-04-08T13:18:21;101191.09;;;26.19;22.39
10008;BME280;5043;41.766;26.204;2023-04-08T13:20:46;101189.44;;;27.65;20.52
10008;BME280;5043;41.766;26.204;2023-04-08T13:23:12;101192.13;;;29.06;19.01